sensor_id;sensor_type;location;lat;lon;timestamp;pressure;altitude;pressure_sealevel;temperature;humidity
25526;BME280;13424;48.424;11.258;2023-11-22T00:00:23;95696.69;;;10.51;80.68
25526;BME280;13424;48.424;11.258;2023-11-22T00:02:49;95698.47;;;9.63;83.78
25526;BME280;13424;48.424;11.258;2023-11-22T00:05:15;95691.72;;;10.19;82.29
25526;BME280;13424;48.424;11.258;2023-11-22T00:07:41;95695.63;;;10.80;79.48
25526;BME280;13424;48.424;11.258;2023-11-22T00:10:07;95702.50;;;10.76;79.13
25526;BME280;13424;48.424;11.258;2023-11-22T00:12:35;95697.22;;;10.93;79.26
25526;BME280;13424;48.424;11.258;2023-11-22T00:15:05;95701.84;;;10.69;79.86
25526;BME280;13424;48.424;11.258;2023-11-22T00:17:33;95702.63;;;10.70;80.01
25526;BME280;13424;48.424;11.258;2023-11-22T00:20:00;95703.47;;;10.58;80.46
25526;BME280;13424;48.424;11.258;2023-11-22T00:22:29;95699.13;;;10.41;80.91
25526;BME280;13424;48.424;11.258;2023-11-22T00:24:59;95700.16;;;10.51;80.86
25526;BME280;13424;48.424;11.258;2023-11-22T00:27:30;95700.00;;;10.58;79.77
25526;BME280;13424;48.424;11.258;2023-11-22T00:30:00;95690.34;;;10.28;81.48
25526;BME280;13424;48.424;11.258;2023-11-22T00:32:26;95692.59;;;10.60;79.73
25526;BME280;13424;48.424;11.258;2023-11-22T00:34:52;95696.38;;;10.00;82.02
25526;BME280;13424;48.424;11.258;2023-11-22T00:37:18;95697.53;;;9.93;82.55
25526;BME280;13424;48.424;11.258;2023-11-22T00:39:44;95695.31;;;10.01;83.33
25526;BME280;13424;48.424;11.258;2023-11-22T00:42:10;95697.78;;;10.67;80.27
25526;BME280;13424;48.424;11.258;2023-11-22T00:44:37;95701.56;;;10.19;81.44
25526;BME280;13424;48.424;11.258;2023-11-22T00:47:06;95705.63;;;10.33;81.55
25526;BME280;13424;48.424;11.258;2023-11-22T00:49:32;95705.56;;;9.81;83.71
25526;BME280;13424;48.424;11.258;2023-11-22T00:51:59;95714.25;;;9.88;83.28
25526;BME280;13424;48.424;11.258;2023-11-22T00:54:25;95700.34;;;10.61;80.02
25526;BME280;13424;48.424;11.258;2023-11-22T00:56:51;95708.28;;;10.73;79.87
25526;BME280;13424;48.424;11.258;2023-11-22T00:59:17;95708.97;;;10.40;80.49
25526;BME280;13424;48.424;11.258;2023-11-22T01:01:45;95727.88;;;10.39;81.25
25526;BME280;13424;48.424;11.258;2023-11-22T01:04:11;95726.84;;;9.93;75.91
25526;BME280;13424;48.424;11.258;2023-11-22T01:06:37;95729.78;;;9.26;76.16
25526;BME280;13424;48.424;11.258;2023-11-22T01:09:03;95732.94;;;8.93;76.37
25526;BME280;13424;48.424;11.258;2023-11-22T01:11:30;95736.34;;;8.27;79.31
25526;BME280;13424;48.424;11.258;2023-11-22T01:13:56;95740.94;;;8.20;79.44
25526;BME280;13424;48.424;11.258;2023-11-22T01:16:22;95740.81;;;7.90;81.18
25526;BME280;13424;48.424;11.258;2023-11-22T01:18:49;95735.03;;;7.99;79.99
25526;BME280;13424;48.424;11.258;2023-11-22T01:21:15;95744.00;;;7.55;81.21
25526;BME280;13424;48.424;11.258;2023-11-22T01:23:41;95750.81;;;7.69;81.55
25526;BME280;13424;48.424;11.258;2023-11-22T01:26:07;95753.47;;;7.44;82.41
25526;BME280;13424;48.424;11.258;2023-11-22T01:28:33;95755.19;;;7.32;82.25
25526;BME280;13424;48.424;11.258;2023-11-22T01:31:01;95762.28;;;7.88;81.26
25526;BME280;13424;48.424;11.258;2023-11-22T01:33:30;95759.75;;;7.18;82.61
25526;BME280;13424;48.424;11.258;2023-11-22T01:36:42;95768.03;;;7.35;82.30
25526;BME280;13424;48.424;11.258;2023-11-22T01:39:11;95776.13;;;7.72;81.47
25526;BME280;13424;48.424;11.258;2023-11-22T01:41:38;95768.78;;;7.42;81.09
25526;BME280;13424;48.424;11.258;2023-11-22T01:44:04;95781.97;;;7.55;80.95
25526;BME280;13424;48.424;11.258;2023-11-22T01:46:30;95781.44;;;7.72;80.25
25526;BME280;13424;48.424;11.258;2023-11-22T01:48:56;95779.47;;;7.36;81.71
25526;BME280;13424;48.424;11.258;2023-11-22T01:51:23;95780.28;;;7.61;79.93
25526;BME280;13424;48.424;11.258;2023-11-22T01:53:55;95778.53;;;7.48;79.83
25526;BME280;13424;48.424;11.258;2023-11-22T01:56:27;95780.47;;;7.91;79.01
25526;BME280;13424;48.424;11.258;2023-11-22T01:58:55;95787.00;;;7.64;79.67
25526;BME280;13424;48.424;11.258;2023-11-22T02:02:09;95775.16;;;6.65;82.27
25526;BME280;13424;48.424;11.258;2023-11-22T02:04:35;95792.00;;;7.78;79.08
25526;BME280;13424;48.424;11.258;2023-11-22T02:07:03;95786.72;;;7.47;78.75
25526;BME280;13424;48.424;11.258;2023-11-22T02:09:29;95795.00;;;7.57;79.35
25526;BME280;13424;48.424;11.258;2023-11-22T02:11:55;95808.13;;;7.52;79.93
25526;BME280;13424;48.424;11.258;2023-11-22T02:14:21;95807.06;;;7.60;79.24
25526;BME280;13424;48.424;11.258;2023-11-22T02:16:48;95811.41;;;7.47;79.79
25526;BME280;13424;48.424;11.258;2023-11-22T02:20:21;95824.84;;;7.84;78.96
25526;BME280;13424;48.424;11.258;2023-11-22T02:22:47;95818.09;;;7.25;79.17
25526;BME280;13424;48.424;11.258;2023-11-22T02:25:14;95814.06;;;7.47;79.12
25526;BME280;13424;48.424;11.258;2023-11-22T02:27:41;95808.16;;;7.14;79.98
25526;BME280;13424;48.424;11.258;2023-11-22T02:30:09;95814.56;;;6.99;79.04
25526;BME280;13424;48.424;11.258;2023-11-22T02:32:37;95811.09;;;7.37;78.38
25526;BME280;13424;48.424;11.258;2023-11-22T02:35:05;95815.59;;;7.37;78.59
25526;BME280;13424;48.424;11.258;2023-11-22T02:37:36;95820.50;;;7.33;79.38
25526;BME280;13424;48.424;11.258;2023-11-22T02:40:16;95812.94;;;6.98;80.05
25526;BME280;13424;48.424;11.258;2023-11-22T02:42:43;95832.25;;;6.61;79.74
25526;BME280;13424;48.424;11.258;2023-11-22T02:45:10;95824.81;;;6.89;79.89
25526;BME280;13424;48.424;11.258;2023-11-22T02:47:36;95830.00;;;7.09;79.26
25526;BME280;13424;48.424;11.258;2023-11-22T02:50:04;95834.72;;;7.45;78.56
25526;BME280;13424;48.424;11.258;2023-11-22T02:52:32;95836.97;;;7.42;79.00
25526;BME280;13424;48.424;11.258;2023-11-22T02:54:58;95843.53;;;7.01;80.21
25526;BME280;13424;48.424;11.258;2023-11-22T02:57:25;95851.41;;;7.52;78.23
25526;BME280;13424;48.424;11.258;2023-11-22T02:59:51;95852.28;;;6.43;82.10
25526;BME280;13424;48.424;11.258;2023-11-22T03:02:18;95856.66;;;6.83;82.07
25526;BME280;13424;48.424;11.258;2023-11-22T03:04:44;95853.59;;;7.31;79.54
25526;BME280;13424;48.424;11.258;2023-11-22T03:07:10;95846.34;;;7.13;78.84
25526;BME280;13424;48.424;11.258;2023-11-22T03:09:36;95855.84;;;6.82;77.95
25526;BME280;13424;48.424;11.258;2023-11-22T03:12:03;95851.50;;;6.23;81.67
25526;BME280;13424;48.424;11.258;2023-11-22T03:14:29;95851.19;;;6.71;77.47
25526;BME280;13424;48.424;11.258;2023-11-22T03:16:55;95850.13;;;6.79;78.49
25526;BME280;13424;48.424;11.258;2023-11-22T03:19:21;95853.88;;;6.58;80.43
25526;BME280;13424;48.424;11.258;2023-11-22T03:21:47;95856.75;;;6.50;80.28
25526;BME280;13424;48.424;11.258;2023-11-22T03:24:13;95852.97;;;6.90;78.00
25526;BME280;13424;48.424;11.258;2023-11-22T03:26:42;95861.63;;;7.11;78.14
25526;BME280;13424;48.424;11.258;2023-11-22T03:29:08;95860.22;;;7.08;78.05
25526;BME280;13424;48.424;11.258;2023-11-22T03:31:34;95853.75;;;6.97;77.41
25526;BME280;13424;48.424;11.258;2023-11-22T03:34:00;95863.53;;;6.97;77.60
25526;BME280;13424;48.424;11.258;2023-11-22T03:36:26;95866.22;;;7.35;76.58
25526;BME280;13424;48.424;11.258;2023-11-22T03:38:53;95868.50;;;7.25;76.88
25526;BME280;13424;48.424;11.258;2023-11-22T03:42:09;95874.47;;;7.14;76.55
25526;BME280;13424;48.424;11.258;2023-11-22T03:44:36;95883.31;;;6.94;76.48
25526;BME280;13424;48.424;11.258;2023-11-22T03:47:02;95885.47;;;6.53;77.15
25526;BME280;13424;48.424;11.258;2023-11-22T03:49:28;95886.75;;;7.02;76.79
25526;BME280;13424;48.424;11.258;2023-11-22T03:51:54;95896.09;;;6.39;79.06
25526;BME280;13424;48.424;11.258;2023-11-22T03:54:20;95897.34;;;6.04;80.08
25526;BME280;13424;48.424;11.258;2023-11-22T03:56:46;95901.19;;;6.48;79.16
25526;BME280;13424;48.424;11.258;2023-11-22T03:59:12;95898.72;;;7.24;77.01
25526;BME280;13424;48.424;11.258;2023-11-22T04:01:38;95897.47;;;6.75;79.30
25526;BME280;13424;48.424;11.258;2023-11-22T04:04:05;95891.09;;;7.34;76.53
25526;BME280;13424;48.424;11.258;2023-11-22T04:06:31;95913.50;;;7.00;77.29
25526;BME280;13424;48.424;11.258;2023-11-22T04:08:59;95923.91;;;6.95;77.04
25526;BME280;13424;48.424;11.258;2023-11-22T04:11:25;95919.97;;;6.13;80.50
25526;BME280;13424;48.424;11.258;2023-11-22T04:13:53;95926.47;;;6.43;79.91
25526;BME280;13424;48.424;11.258;2023-11-22T04:20:10;95923.81;;;6.57;79.50
25526;BME280;13424;48.424;11.258;2023-11-22T04:22:44;95920.69;;;6.86;78.45
25526;BME280;13424;48.424;11.258;2023-11-22T04:25:13;95924.41;;;6.65;79.58
25526;BME280;13424;48.424;11.258;2023-11-22T04:27:40;95935.38;;;6.82;77.63
25526;BME280;13424;48.424;11.258;2023-11-22T04:30:08;95939.00;;;6.94;77.43
25526;BME280;13424;48.424;11.258;2023-11-22T04:32:39;95942.66;;;7.07;77.55
25526;BME280;13424;48.424;11.258;2023-11-22T04:35:06;95948.97;;;7.12;77.35
25526;BME280;13424;48.424;11.258;2023-11-22T04:37:33;95945.34;;;5.61;82.39
25526;BME280;13424;48.424;11.258;2023-11-22T04:40:00;95954.16;;;6.81;79.80
25526;BME280;13424;48.424;11.258;2023-11-22T04:42:27;95955.41;;;6.52;79.29
25526;BME280;13424;48.424;11.258;2023-11-22T04:44:54;95957.41;;;6.89;76.35
25526;BME280;13424;48.424;11.258;2023-11-22T04:47:21;95952.31;;;6.88;77.66
25526;BME280;13424;48.424;11.258;2023-11-22T04:49:48;95960.78;;;7.23;77.59
25526;BME280;13424;48.424;11.258;2023-11-22T04:52:15;95967.47;;;7.32;75.47
25526;BME280;13424;48.424;11.258;2023-11-22T04:54:41;95974.97;;;6.44;78.08
25526;BME280;13424;48.424;11.258;2023-11-22T04:57:07;95974.78;;;6.72;77.72
25526;BME280;13424;48.424;11.258;2023-11-22T04:59:33;95977.34;;;7.12;76.29
25526;BME280;13424;48.424;11.258;2023-11-22T05:01:59;95984.63;;;7.36;74.81
25526;BME280;13424;48.424;11.258;2023-11-22T05:04:25;95987.03;;;7.44;75.34
25526;BME280;13424;48.424;11.258;2023-11-22T05:06:53;95997.56;;;7.06;77.48
25526;BME280;13424;48.424;11.258;2023-11-22T05:09:19;96003.88;;;7.12;74.95
25526;BME280;13424;48.424;11.258;2023-11-22T05:11:46;95989.63;;;6.86;75.39
25526;BME280;13424;48.424;11.258;2023-11-22T05:14:12;96003.69;;;6.87;75.68
25526;BME280;13424;48.424;11.258;2023-11-22T05:16:39;95995.34;;;6.90;76.25
25526;BME280;13424;48.424;11.258;2023-11-22T05:19:05;95999.00;;;6.95;76.28
25526;BME280;13424;48.424;11.258;2023-11-22T05:21:32;96006.00;;;7.41;74.90
25526;BME280;13424;48.424;11.258;2023-11-22T05:24:44;96012.00;;;7.17;74.80
25526;BME280;13424;48.424;11.258;2023-11-22T05:27:10;96024.22;;;7.31;75.05
25526;BME280;13424;48.424;11.258;2023-11-22T05:29:37;96019.63;;;6.47;77.13
25526;BME280;13424;48.424;11.258;2023-11-22T05:32:04;96020.06;;;6.64;77.91
25526;BME280;13424;48.424;11.258;2023-11-22T05:34:30;96027.78;;;6.59;78.47
25526;BME280;13424;48.424;11.258;2023-11-22T05:36:56;96032.69;;;6.88;77.92
25526;BME280;13424;48.424;11.258;2023-11-22T05:39:22;96029.84;;;6.57;78.60
25526;BME280;13424;48.424;11.258;2023-11-22T05:41:48;96029.59;;;6.85;77.68
25526;BME280;13424;48.424;11.258;2023-11-22T05:44:15;96020.03;;;5.63;80.57
25526;BME280;13424;48.424;11.258;2023-11-22T05:46:41;96029.22;;;6.48;79.02
25526;BME280;13424;48.424;11.258;2023-11-22T05:49:07;96022.09;;;5.74;79.35
25526;BME280;13424;48.424;11.258;2023-11-22T05:51:34;96026.78;;;5.24;82.45
25526;BME280;13424;48.424;11.258;2023-11-22T05:54:00;96031.38;;;4.74;82.11
25526;BME280;13424;48.424;11.258;2023-11-22T05:56:26;96037.72;;;5.56;81.05
25526;BME280;13424;48.424;11.258;2023-11-22T05:58:52;96043.63;;;5.17;81.72
25526;BME280;13424;48.424;11.258;2023-11-22T06:01:18;96046.22;;;5.45;80.41
25526;BME280;13424;48.424;11.258;2023-11-22T06:03:44;96045.66;;;5.56;78.31
25526;BME280;13424;48.424;11.258;2023-11-22T06:06:10;96042.44;;;5.67;78.13
25526;BME280;13424;48.424;11.258;2023-11-22T06:09:52;96051.81;;;4.94;82.13
25526;BME280;13424;48.424;11.258;2023-11-22T06:12:18;96049.91;;;5.09;81.24
25526;BME280;13424;48.424;11.258;2023-11-22T06:14:46;96053.78;;;5.48;79.53
25526;BME280;13424;48.424;11.258;2023-11-22T06:17:13;96050.28;;;5.06;82.20
25526;BME280;13424;48.424;11.258;2023-11-22T06:19:40;96066.38;;;5.46;80.14
25526;BME280;13424;48.424;11.258;2023-11-22T06:22:09;96070.63;;;5.88;78.12
25526;BME280;13424;48.424;11.258;2023-11-22T06:24:35;96058.56;;;6.33;76.81
25526;BME280;13424;48.424;11.258;2023-11-22T06:27:02;96061.78;;;6.22;77.89
25526;BME280;13424;48.424;11.258;2023-11-22T06:29:29;96070.59;;;6.42;76.29
25526;BME280;13424;48.424;11.258;2023-11-22T06:31:55;96075.41;;;5.65;78.77
25526;BME280;13424;48.424;11.258;2023-11-22T06:34:21;96080.25;;;5.96;78.16
25526;BME280;13424;48.424;11.258;2023-11-22T06:36:47;96095.00;;;5.70;78.04
25526;BME280;13424;48.424;11.258;2023-11-22T06:39:13;96094.19;;;5.70;78.36
25526;BME280;13424;48.424;11.258;2023-11-22T06:41:41;96101.50;;;5.33;79.69
25526;BME280;13424;48.424;11.258;2023-11-22T06:44:07;96113.34;;;5.09;80.73
25526;BME280;13424;48.424;11.258;2023-11-22T06:46:33;96104.41;;;5.79;78.46
25526;BME280;13424;48.424;11.258;2023-11-22T06:48:59;96110.75;;;5.16;79.21
25526;BME280;13424;48.424;11.258;2023-11-22T06:51:25;96113.16;;;4.40;82.79
25526;BME280;13424;48.424;11.258;2023-11-22T06:53:51;96112.44;;;5.58;79.20
25526;BME280;13424;48.424;11.258;2023-11-22T06:56:20;96116.63;;;5.80;77.69
25526;BME280;13424;48.424;11.258;2023-11-22T06:58:46;96119.28;;;5.80;77.29
25526;BME280;13424;48.424;11.258;2023-11-22T07:01:12;96136.88;;;5.60;78.54
25526;BME280;13424;48.424;11.258;2023-11-22T07:03:39;96136.44;;;4.72;80.55
25526;BME280;13424;48.424;11.258;2023-11-22T07:06:07;96145.06;;;5.30;79.94
25526;BME280;13424;48.424;11.258;2023-11-22T07:08:33;96145.66;;;5.67;77.84
25526;BME280;13424;48.424;11.258;2023-11-22T07:11:00;96159.69;;;5.61;79.11
25526;BME280;13424;48.424;11.258;2023-11-22T07:13:29;96161.13;;;5.98;77.96
25526;BME280;13424;48.424;11.258;2023-11-22T07:15:55;96160.75;;;6.01;77.50
25526;BME280;13424;48.424;11.258;2023-11-22T07:18:24;96161.63;;;5.46;78.46
25526;BME280;13424;48.424;11.258;2023-11-22T07:20:50;96171.91;;;5.97;76.52
25526;BME280;13424;48.424;11.258;2023-11-22T07:23:28;96173.91;;;5.60;77.26
25526;BME280;13424;48.424;11.258;2023-11-22T07:25:55;96179.44;;;5.30;79.34
25526;BME280;13424;48.424;11.258;2023-11-22T07:28:21;96178.56;;;5.23;80.63
25526;BME280;13424;48.424;11.258;2023-11-22T07:30:47;96194.03;;;5.26;79.22
25526;BME280;13424;48.424;11.258;2023-11-22T07:33:14;96207.72;;;5.30;78.78
25526;BME280;13424;48.424;11.258;2023-11-22T07:35:46;96209.81;;;5.41;79.17
25526;BME280;13424;48.424;11.258;2023-11-22T07:38:12;96210.91;;;5.81;78.01
25526;BME280;13424;48.424;11.258;2023-11-22T07:40:38;96211.53;;;5.83;77.08
25526;BME280;13424;48.424;11.258;2023-11-22T07:43:05;96202.47;;;5.65;77.21
25526;BME280;13424;48.424;11.258;2023-11-22T07:45:31;96204.81;;;5.53;77.41
25526;BME280;13424;48.424;11.258;2023-11-22T07:47:58;96217.47;;;5.29;78.08
25526;BME280;13424;48.424;11.258;2023-11-22T07:50:28;96232.34;;;5.86;76.36
25526;BME280;13424;48.424;11.258;2023-11-22T07:52:56;96219.31;;;5.85;78.56
25526;BME280;13424;48.424;11.258;2023-11-22T07:55:22;96222.66;;;5.44;76.79
25526;BME280;13424;48.424;11.258;2023-11-22T07:57:49;96222.50;;;5.80;77.23
25526;BME280;13424;48.424;11.258;2023-11-22T08:00:17;96226.69;;;5.68;77.64
25526;BME280;13424;48.424;11.258;2023-11-22T08:02:48;96221.25;;;5.20;78.91
25526;BME280;13424;48.424;11.258;2023-11-22T08:05:16;96224.16;;;5.81;75.63
25526;BME280;13424;48.424;11.258;2023-11-22T08:07:42;96239.13;;;5.40;78.12
25526;BME280;13424;48.424;11.258;2023-11-22T08:10:10;96237.81;;;3.99;82.14
25526;BME280;13424;48.424;11.258;2023-11-22T08:16:39;96251.59;;;6.02;75.86
25526;BME280;13424;48.424;11.258;2023-11-22T08:19:11;96255.69;;;6.04;75.77
25526;BME280;13424;48.424;11.258;2023-11-22T08:21:37;96258.31;;;5.48;77.14
25526;BME280;13424;48.424;11.258;2023-11-22T08:24:05;96260.06;;;4.56;77.42
25526;BME280;13424;48.424;11.258;2023-11-22T08:26:31;96259.84;;;5.36;78.54
25526;BME280;13424;48.424;11.258;2023-11-22T08:28:57;96277.53;;;5.85;76.61
25526;BME280;13424;48.424;11.258;2023-11-22T08:31:23;96267.78;;;5.85;75.20
25526;BME280;13424;48.424;11.258;2023-11-22T08:33:48;96261.44;;;5.09;77.55
25526;BME280;13424;48.424;11.258;2023-11-22T08:36:14;96272.00;;;6.08;76.09
25526;BME280;13424;48.424;11.258;2023-11-22T08:38:40;96287.28;;;6.40;75.49
25526;BME280;13424;48.424;11.258;2023-11-22T08:41:08;96287.19;;;6.27;76.38
25526;BME280;13424;48.424;11.258;2023-11-22T08:43:39;96292.72;;;5.98;73.66
25526;BME280;13424;48.424;11.258;2023-11-22T08:46:06;96297.69;;;5.58;75.48
25526;BME280;13424;48.424;11.258;2023-11-22T08:48:36;96296.31;;;5.62;75.44
25526;BME280;13424;48.424;11.258;2023-11-22T08:51:03;96294.28;;;5.43;74.81
25526;BME280;13424;48.424;11.258;2023-11-22T08:53:29;96294.34;;;5.71;76.28
25526;BME280;13424;48.424;11.258;2023-11-22T08:55:56;96294.63;;;4.25;78.15
25526;BME280;13424;48.424;11.258;2023-11-22T09:02:56;96296.53;;;5.67;74.46
25526;BME280;13424;48.424;11.258;2023-11-22T09:05:22;96300.97;;;5.88;75.63
25526;BME280;13424;48.424;11.258;2023-11-22T09:07:49;96313.78;;;6.47;72.28
25526;BME280;13424;48.424;11.258;2023-11-22T09:10:17;96315.94;;;5.53;73.69
25526;BME280;13424;48.424;11.258;2023-11-22T09:12:45;96315.78;;;6.04;74.97
25526;BME280;13424;48.424;11.258;2023-11-22T09:15:12;96323.25;;;5.72;74.10
25526;BME280;13424;48.424;11.258;2023-11-22T09:17:45;96323.25;;;5.94;73.23
25526;BME280;13424;48.424;11.258;2023-11-22T09:20:18;96332.28;;;5.84;73.48
25526;BME280;13424;48.424;11.258;2023-11-22T09:22:51;96342.94;;;6.40;72.38
25526;BME280;13424;48.424;11.258;2023-11-22T09:25:20;96350.22;;;6.04;75.27
25526;BME280;13424;48.424;11.258;2023-11-22T09:27:49;96345.44;;;5.71;74.60
25526;BME280;13424;48.424;11.258;2023-11-22T09:30:20;96341.44;;;5.82;74.51
25526;BME280;13424;48.424;11.258;2023-11-22T09:33:06;96343.91;;;6.39;73.73
25526;BME280;13424;48.424;11.258;2023-11-22T09:35:33;96358.97;;;6.32;73.94
25526;BME280;13424;48.424;11.258;2023-11-22T09:38:06;96362.56;;;5.75;73.79
25526;BME280;13424;48.424;11.258;2023-11-22T09:40:45;96353.13;;;6.09;72.54
25526;BME280;13424;48.424;11.258;2023-11-22T09:43:12;96368.41;;;6.41;71.23
25526;BME280;13424;48.424;11.258;2023-11-22T09:45:41;96355.16;;;6.13;73.00
25526;BME280;13424;48.424;11.258;2023-11-22T09:48:20;96357.00;;;6.41;72.92
25526;BME280;13424;48.424;11.258;2023-11-22T09:54:14;96347.47;;;5.91;74.57
25526;BME280;13424;48.424;11.258;2023-11-22T09:56:41;96342.28;;;6.04;74.20
25526;BME280;13424;48.424;11.258;2023-11-22T09:59:18;96349.25;;;5.62;75.08
25526;BME280;13424;48.424;11.258;2023-11-22T10:01:44;96350.06;;;6.47;72.75
25526;BME280;13424;48.424;11.258;2023-11-22T10:04:10;96348.13;;;6.62;72.13
25526;BME280;13424;48.424;11.258;2023-11-22T10:06:37;96350.63;;;5.58;73.33
25526;BME280;13424;48.424;11.258;2023-11-22T10:09:04;96340.72;;;6.51;73.23
25526;BME280;13424;48.424;11.258;2023-11-22T10:11:35;96333.50;;;5.54;75.74
25526;BME280;13424;48.424;11.258;2023-11-22T10:14:09;96333.41;;;6.53;72.92
25526;BME280;13424;48.424;11.258;2023-11-22T10:16:35;96339.56;;;6.60;71.58
25526;BME280;13424;48.424;11.258;2023-11-22T10:19:01;96338.78;;;6.66;71.75
25526;BME280;13424;48.424;11.258;2023-11-22T10:21:29;96337.59;;;6.06;73.70
25526;BME280;13424;48.424;11.258;2023-11-22T10:24:03;96328.75;;;5.71;74.20
25526;BME280;13424;48.424;11.258;2023-11-22T10:26:30;96339.41;;;5.77;72.77
25526;BME280;13424;48.424;11.258;2023-11-22T10:28:58;96333.09;;;5.78;74.72
25526;BME280;13424;48.424;11.258;2023-11-22T10:31:25;96338.31;;;6.56;72.47
25526;BME280;13424;48.424;11.258;2023-11-22T10:33:51;96339.50;;;7.01;72.39
25526;BME280;13424;48.424;11.258;2023-11-22T10:36:18;96341.63;;;6.71;71.14
25526;BME280;13424;48.424;11.258;2023-11-22T10:38:47;96341.41;;;6.25;74.16
25526;BME280;13424;48.424;11.258;2023-11-22T10:41:14;96350.16;;;6.60;71.25
25526;BME280;13424;48.424;11.258;2023-11-22T10:43:40;96361.22;;;6.70;71.20
25526;BME280;13424;48.424;11.258;2023-11-22T10:46:08;96362.16;;;6.21;73.14
25526;BME280;13424;48.424;11.258;2023-11-22T10:48:38;96366.31;;;7.26;70.07
25526;BME280;13424;48.424;11.258;2023-11-22T10:51:06;96353.13;;;6.43;72.93
25526;BME280;13424;48.424;11.258;2023-11-22T10:53:36;96359.16;;;5.81;74.41
25526;BME280;13424;48.424;11.258;2023-11-22T10:56:16;96378.53;;;6.66;72.05
25526;BME280;13424;48.424;11.258;2023-11-22T10:58:50;96390.19;;;7.26;70.08
25526;BME280;13424;48.424;11.258;2023-11-22T11:01:21;96386.44;;;7.00;71.02
25526;BME280;13424;48.424;11.258;2023-11-22T11:04:20;96379.50;;;5.96;72.48
25526;BME280;13424;48.424;11.258;2023-11-22T11:06:54;96388.53;;;6.70;72.51
25526;BME280;13424;48.424;11.258;2023-11-22T11:09:24;96393.56;;;6.93;71.64
25526;BME280;13424;48.424;11.258;2023-11-22T11:11:56;96387.84;;;6.55;72.26
25526;BME280;13424;48.424;11.258;2023-11-22T11:14:23;96393.56;;;6.93;69.57
25526;BME280;13424;48.424;11.258;2023-11-22T11:16:51;96386.09;;;6.69;69.86
25526;BME280;13424;48.424;11.258;2023-11-22T11:19:20;96384.41;;;6.61;70.69
25526;BME280;13424;48.424;11.258;2023-11-22T11:21:51;96384.16;;;6.91;70.01
25526;BME280;13424;48.424;11.258;2023-11-22T11:24:17;96376.34;;;6.76;70.51
25526;BME280;13424;48.424;11.258;2023-11-22T11:26:50;96370.66;;;6.86;71.64
25526;BME280;13424;48.424;11.258;2023-11-22T11:29:36;96368.63;;;6.81;71.46
25526;BME280;13424;48.424;11.258;2023-11-22T11:32:11;96365.97;;;6.40;71.97
25526;BME280;13424;48.424;11.258;2023-11-22T11:34:58;96369.06;;;6.91;71.20
25526;BME280;13424;48.424;11.258;2023-11-22T11:37:29;96363.31;;;6.12;73.39
25526;BME280;13424;48.424;11.258;2023-11-22T11:39:55;96370.00;;;5.86;73.71
25526;BME280;13424;48.424;11.258;2023-11-22T11:42:22;96378.88;;;6.97;71.17
25526;BME280;13424;48.424;11.258;2023-11-22T11:45:07;96373.06;;;6.74;72.22
25526;BME280;13424;48.424;11.258;2023-11-22T11:47:34;96374.44;;;7.05;70.04
25526;BME280;13424;48.424;11.258;2023-11-22T11:50:00;96369.81;;;6.79;70.82
25526;BME280;13424;48.424;11.258;2023-11-22T11:52:27;96374.28;;;6.78;71.69
25526;BME280;13424;48.424;11.258;2023-11-22T11:55:06;96375.38;;;6.90;71.13
25526;BME280;13424;48.424;11.258;2023-11-22T11:57:32;96375.75;;;6.81;70.68
25526;BME280;13424;48.424;11.258;2023-11-22T11:59:58;96381.63;;;6.76;71.24
25526;BME280;13424;48.424;11.258;2023-11-22T12:02:25;96380.41;;;6.72;71.00
25526;BME280;13424;48.424;11.258;2023-11-22T12:04:51;96389.94;;;7.08;69.91
25526;BME280;13424;48.424;11.258;2023-11-22T12:07:17;96399.44;;;7.37;70.70
25526;BME280;13424;48.424;11.258;2023-11-22T12:09:43;96397.16;;;7.27;70.57
25526;BME280;13424;48.424;11.258;2023-11-22T12:12:09;96406.38;;;7.38;69.79
25526;BME280;13424;48.424;11.258;2023-11-22T12:14:39;96420.09;;;7.54;68.89
25526;BME280;13424;48.424;11.258;2023-11-22T12:17:05;96414.59;;;7.56;69.03
25526;BME280;13424;48.424;11.258;2023-11-22T12:19:33;96398.25;;;6.91;69.85
25526;BME280;13424;48.424;11.258;2023-11-22T12:22:00;96403.25;;;7.21;69.89
25526;BME280;13424;48.424;11.258;2023-11-22T12:24:26;96404.22;;;7.07;70.58
25526;BME280;13424;48.424;11.258;2023-11-22T12:26:53;96399.00;;;6.85;71.56
25526;BME280;13424;48.424;11.258;2023-11-22T12:29:21;96388.38;;;6.72;71.83
25526;BME280;13424;48.424;11.258;2023-11-22T12:31:52;96379.25;;;6.94;70.75
25526;BME280;13424;48.424;11.258;2023-11-22T12:34:23;96395.81;;;7.64;69.31
25526;BME280;13424;48.424;11.258;2023-11-22T12:36:51;96392.75;;;6.99;71.81
25526;BME280;13424;48.424;11.258;2023-11-22T12:39:20;96386.94;;;7.24;70.72
25526;BME280;13424;48.424;11.258;2023-11-22T12:41:52;96379.50;;;6.99;71.08
25526;BME280;13424;48.424;11.258;2023-11-22T12:44:19;96379.59;;;6.78;73.46
25526;BME280;13424;48.424;11.258;2023-11-22T12:46:53;96392.34;;;7.03;72.41
25526;BME280;13424;48.424;11.258;2023-11-22T12:49:27;96393.47;;;6.74;71.17
25526;BME280;13424;48.424;11.258;2023-11-22T12:51:56;96402.84;;;6.41;72.74
25526;BME280;13424;48.424;11.258;2023-11-22T12:54:25;96404.44;;;6.64;72.20
25526;BME280;13424;48.424;11.258;2023-11-22T12:56:53;96412.22;;;6.72;71.32
25526;BME280;13424;48.424;11.258;2023-11-22T12:59:25;96402.34;;;6.31;72.44
25526;BME280;13424;48.424;11.258;2023-11-22T13:01:56;96404.81;;;6.95;70.95
25526;BME280;13424;48.424;11.258;2023-11-22T13:04:23;96393.31;;;6.19;73.91
25526;BME280;13424;48.424;11.258;2023-11-22T13:06:49;96401.78;;;7.05;71.95
25526;BME280;13424;48.424;11.258;2023-11-22T13:09:15;96397.72;;;7.16;71.05
25526;BME280;13424;48.424;11.258;2023-11-22T13:11:42;96406.03;;;6.02;72.73
25526;BME280;13424;48.424;11.258;2023-11-22T13:14:12;96405.50;;;6.76;71.48
25526;BME280;13424;48.424;11.258;2023-11-22T13:16:45;96404.75;;;5.98;73.93
25526;BME280;13424;48.424;11.258;2023-11-22T13:19:11;96409.66;;;6.92;69.16
25526;BME280;13424;48.424;11.258;2023-11-22T13:21:37;96415.25;;;6.69;71.65
25526;BME280;13424;48.424;11.258;2023-11-22T13:24:03;96408.59;;;6.17;73.94